sensor_id;sensor_type;location;lat;lon;timestamp;temperature;humidity
20735;DHT22;10528;52.124;5.196;2023-07-20T00:02:24;18.10;99.90
20735;DHT22;10528;52.124;5.196;2023-07-20T00:04:51;18.10;99.90
20735;DHT22;10528;52.124;5.196;2023-07-20T00:07:18;18.00;99.90
20735;DHT22;10528;52.124;5.196;2023-07-20T00:09:45;18.00;99.90
20735;DHT22;10528;52.124;5.196;2023-07-20T00:12:13;17.90;99.90
20735;DHT22;10528;52.124;5.196;2023-07-20T00:14:40;18.00;99.90
20735;DHT22;10528;52.124;5.196;2023-07-20T00:17:07;18.00;99.90
20735;DHT22;10528;52.124;5.196;2023-07-20T00:19:34;18.00;99.90
20735;DHT22;10528;52.124;5.196;2023-07-20T00:22:01;18.00;99.90
20735;DHT22;10528;52.124;5.196;2023-07-20T00:24:28;17.80;99.90
20735;DHT22;10528;52.124;5.196;2023-07-20T00:26:55;17.80;99.90
20735;DHT22;10528;52.124;5.196;2023-07-20T00:29:22;17.80;99.90
20735;DHT22;10528;52.124;5.196;2023-07-20T00:31:49;17.90;99.90
20735;DHT22;10528;52.124;5.196;2023-07-20T00:34:17;17.80;99.90
20735;DHT22;10528;52.124;5.196;2023-07-20T00:36:44;17.90;99.90
20735;DHT22;10528;52.124;5.196;2023-07-20T00:39:11;17.80;99.90
20735;DHT22;10528;52.124;5.196;2023-07-20T00:41:38;17.80;99.90
20735;DHT22;10528;52.124;5.196;2023-07-20T00:44:05;17.70;99.90
20735;DHT22;10528;52.124;5.196;2023-07-20T00:46:32;17.70;99.90
20735;DHT22;10528;52.124;5.196;2023-07-20T00:49:00;17.70;99.90
20735;DHT22;10528;52.124;5.196;2023-07-20T00:51:28;17.60;99.90
20735;DHT22;10528;52.124;5.196;2023-07-20T00:53:55;17.50;99.90
20735;DHT22;10528;52.124;5.196;2023-07-20T00:56:22;17.60;99.90
20735;DHT22;10528;52.124;5.196;2023-07-20T00:58:51;17.50;99.90
20735;DHT22;10528;52.124;5.196;2023-07-20T01:01:21;17.40;99.90
20735;DHT22;10528;52.124;5.196;2023-07-20T01:03:49;17.40;99.90
20735;DHT22;10528;52.124;5.196;2023-07-20T01:06:26;17.30;99.90
20735;DHT22;10528;52.124;5.196;2023-07-20T01:12:27;17.20;99.90
20735;DHT22;10528;52.124;5.196;2023-07-20T01:14:59;17.10;99.90
20735;DHT22;10528;52.124;5.196;2023-07-20T01:17:26;17.10;99.90
20735;DHT22;10528;52.124;5.196;2023-07-20T01:19:53;17.10;99.90
20735;DHT22;10528;52.124;5.196;2023-07-20T01:31:36;17.00;99.90
20735;DHT22;10528;52.124;5.196;2023-07-20T01:34:06;16.90;99.90
20735;DHT22;10528;52.124;5.196;2023-07-20T01:36:36;16.90;99.90
20735;DHT22;10528;52.124;5.196;2023-07-20T01:39:05;16.80;99.90
20735;DHT22;10528;52.124;5.196;2023-07-20T01:41:33;16.80;99.90
20735;DHT22;10528;52.124;5.196;2023-07-20T01:44:00;16.80;99.90
20735;DHT22;10528;52.124;5.196;2023-07-20T01:46:30;16.70;99.90
20735;DHT22;10528;52.124;5.196;2023-07-20T01:48:58;16.70;99.90
20735;DHT22;10528;52.124;5.196;2023-07-20T01:51:25;16.80;99.90
20735;DHT22;10528;52.124;5.196;2023-07-20T01:53:52;16.70;99.90
20735;DHT22;10528;52.124;5.196;2023-07-20T01:56:19;16.70;99.90
20735;DHT22;10528;52.124;5.196;2023-07-20T01:58:46;16.70;99.90
20735;DHT22;10528;52.124;5.196;2023-07-20T02:01:13;16.60;99.90
20735;DHT22;10528;52.124;5.196;2023-07-20T02:03:40;16.60;99.90
20735;DHT22;10528;52.124;5.196;2023-07-20T02:06:07;16.60;99.90
20735;DHT22;10528;52.124;5.196;2023-07-20T02:08:34;16.60;99.90
20735;DHT22;10528;52.124;5.196;2023-07-20T02:11:01;16.50;99.90
20735;DHT22;10528;52.124;5.196;2023-07-20T02:13:29;16.50;99.90
20735;DHT22;10528;52.124;5.196;2023-07-20T02:15:56;16.50;99.90
20735;DHT22;10528;52.124;5.196;2023-07-20T02:18:23;16.40;99.90
20735;DHT22;10528;52.124;5.196;2023-07-20T02:20:53;16.40;99.90
20735;DHT22;10528;52.124;5.196;2023-07-20T02:23:20;16.40;99.90
20735;DHT22;10528;52.124;5.196;2023-07-20T02:25:47;16.30;99.90
20735;DHT22;10528;52.124;5.196;2023-07-20T02:28:15;16.30;99.90
20735;DHT22;10528;52.124;5.196;2023-07-20T02:30:44;16.30;99.90
20735;DHT22;10528;52.124;5.196;2023-07-20T02:33:11;16.20;99.90
20735;DHT22;10528;52.124;5.196;2023-07-20T02:35:39;16.30;99.90
20735;DHT22;10528;52.124;5.196;2023-07-20T02:38:07;16.20;99.90
20735;DHT22;10528;52.124;5.196;2023-07-20T02:40:34;16.20;99.90
20735;DHT22;10528;52.124;5.196;2023-07-20T02:43:01;16.20;99.90
20735;DHT22;10528;52.124;5.196;2023-07-20T02:45:28;16.20;99.90
20735;DHT22;10528;52.124;5.196;2023-07-20T02:47:55;16.10;99.90
20735;DHT22;10528;52.124;5.196;2023-07-20T02:50:22;16.10;99.90
20735;DHT22;10528;52.124;5.196;2023-07-20T02:52:49;16.10;99.90
20735;DHT22;10528;52.124;5.196;2023-07-20T02:55:16;16.10;99.90
20735;DHT22;10528;52.124;5.196;2023-07-20T02:57:43;16.00;99.90
20735;DHT22;10528;52.124;5.196;2023-07-20T03:00:11;15.90;99.90
20735;DHT22;10528;52.124;5.196;2023-07-20T03:02:42;15.90;99.90
20735;DHT22;10528;52.124;5.196;2023-07-20T03:05:09;15.90;99.90
20735;DHT22;10528;52.124;5.196;2023-07-20T03:07:36;15.90;99.90
20735;DHT22;10528;52.124;5.196;2023-07-20T03:10:03;15.80;99.90
20735;DHT22;10528;52.124;5.196;2023-07-20T03:12:31;15.70;99.90
20735;DHT22;10528;52.124;5.196;2023-07-20T03:14:58;15.80;99.90
20735;DHT22;10528;52.124;5.196;2023-07-20T03:17:25;15.80;99.90
20735;DHT22;10528;52.124;5.196;2023-07-20T03:19:52;15.80;99.90
20735;DHT22;10528;52.124;5.196;2023-07-20T03:22:19;15.70;99.90
20735;DHT22;10528;52.124;5.196;2023-07-20T03:24:48;15.70;99.90
20735;DHT22;10528;52.124;5.196;2023-07-20T03:27:15;15.60;99.90
20735;DHT22;10528;52.124;5.196;2023-07-20T03:29:41;15.60;99.90
20735;DHT22;10528;52.124;5.196;2023-07-20T03:32:10;15.60;99.90
20735;DHT22;10528;52.124;5.196;2023-07-20T03:34:37;15.50;99.90
20735;DHT22;10528;52.124;5.196;2023-07-20T03:37:04;15.60;99.90
20735;DHT22;10528;52.124;5.196;2023-07-20T03:39:31;15.50;99.90
20735;DHT22;10528;52.124;5.196;2023-07-20T03:41:58;15.50;99.90
20735;DHT22;10528;52.124;5.196;2023-07-20T03:44:25;15.50;99.90
20735;DHT22;10528;52.124;5.196;2023-07-20T03:46:53;15.40;99.90
20735;DHT22;10528;52.124;5.196;2023-07-20T03:49:20;15.40;99.90
20735;DHT22;10528;52.124;5.196;2023-07-20T03:51:47;15.50;99.90
20735;DHT22;10528;52.124;5.196;2023-07-20T03:54:14;15.50;99.90
20735;DHT22;10528;52.124;5.196;2023-07-20T03:56:41;15.40;99.90
20735;DHT22;10528;52.124;5.196;2023-07-20T03:59:07;15.40;99.90
20735;DHT22;10528;52.124;5.196;2023-07-20T04:01:34;15.40;99.90
20735;DHT22;10528;52.124;5.196;2023-07-20T04:04:07;15.40;99.90
20735;DHT22;10528;52.124;5.196;2023-07-20T04:06:35;15.40;99.90
20735;DHT22;10528;52.124;5.196;2023-07-20T04:09:03;15.40;99.90
20735;DHT22;10528;52.124;5.196;2023-07-20T04:11:31;15.40;99.90
20735;DHT22;10528;52.124;5.196;2023-07-20T04:13:58;15.40;99.90
20735;DHT22;10528;52.124;5.196;2023-07-20T04:16:25;15.40;99.90
20735;DHT22;10528;52.124;5.196;2023-07-20T04:18:57;15.30;99.90
20735;DHT22;10528;52.124;5.196;2023-07-20T04:21:28;15.30;99.90
20735;DHT22;10528;52.124;5.196;2023-07-20T04:23:55;15.40;99.90
20735;DHT22;10528;52.124;5.196;2023-07-20T04:26:23;15.50;99.90
20735;DHT22;10528;52.124;5.196;2023-07-20T04:28:51;15.40;99.90
20735;DHT22;10528;52.124;5.196;2023-07-20T04:31:31;15.50;99.90
20735;DHT22;10528;52.124;5.196;2023-07-20T04:34:00;15.60;99.90
20735;DHT22;10528;52.124;5.196;2023-07-20T04:36:27;15.60;99.90
20735;DHT22;10528;52.124;5.196;2023-07-20T04:38:55;15.60;99.90
20735;DHT22;10528;52.124;5.196;2023-07-20T04:41:22;15.70;99.90
20735;DHT22;10528;52.124;5.196;2023-07-20T04:43:51;15.60;99.90
20735;DHT22;10528;52.124;5.196;2023-07-20T04:46:24;15.70;99.90
20735;DHT22;10528;52.124;5.196;2023-07-20T04:48:52;16.00;99.90
20735;DHT22;10528;52.124;5.196;2023-07-20T04:51:19;16.10;99.90
20735;DHT22;10528;52.124;5.196;2023-07-20T04:53:49;16.20;99.90
20735;DHT22;10528;52.124;5.196;2023-07-20T04:56:16;16.20;99.90
20735;DHT22;10528;52.124;5.196;2023-07-20T04:58:43;16.30;99.90
20735;DHT22;10528;52.124;5.196;2023-07-20T05:01:10;16.50;99.90
20735;DHT22;10528;52.124;5.196;2023-07-20T05:03:38;16.60;99.90
20735;DHT22;10528;52.124;5.196;2023-07-20T05:06:08;17.10;99.90
20735;DHT22;10528;52.124;5.196;2023-07-20T05:08:35;17.10;99.90
20735;DHT22;10528;52.124;5.196;2023-07-20T05:11:02;17.40;99.90
20735;DHT22;10528;52.124;5.196;2023-07-20T05:13:29;17.50;99.90
20735;DHT22;10528;52.124;5.196;2023-07-20T05:15:56;17.40;99.90
20735;DHT22;10528;52.124;5.196;2023-07-20T05:18:23;17.20;99.90
20735;DHT22;10528;52.124;5.196;2023-07-20T05:20:51;17.10;99.90
20735;DHT22;10528;52.124;5.196;2023-07-20T05:23:19;17.10;99.90
20735;DHT22;10528;52.124;5.196;2023-07-20T05:25:56;17.20;99.90
20735;DHT22;10528;52.124;5.196;2023-07-20T05:28:24;17.30;99.90
20735;DHT22;10528;52.124;5.196;2023-07-20T05:30:53;17.20;99.90
20735;DHT22;10528;52.124;5.196;2023-07-20T05:33:20;17.50;99.90
20735;DHT22;10528;52.124;5.196;2023-07-20T05:35:48;17.70;99.90
20735;DHT22;10528;52.124;5.196;2023-07-20T05:38:15;17.50;99.90
20735;DHT22;10528;52.124;5.196;2023-07-20T05:40:43;17.50;99.90
20735;DHT22;10528;52.124;5.196;2023-07-20T05:43:11;17.80;99.90
20735;DHT22;10528;52.124;5.196;2023-07-20T05:45:42;18.20;99.90
20735;DHT22;10528;52.124;5.196;2023-07-20T05:48:09;18.30;99.90
20735;DHT22;10528;52.124;5.196;2023-07-20T05:50:42;18.50;99.90
20735;DHT22;10528;52.124;5.196;2023-07-20T05:53:10;18.80;99.90
20735;DHT22;10528;52.124;5.196;2023-07-20T05:55:37;18.90;99.90
20735;DHT22;10528;52.124;5.196;2023-07-20T05:58:04;19.00;99.90
20735;DHT22;10528;52.124;5.196;2023-07-20T06:00:31;19.40;99.90
20735;DHT22;10528;52.124;5.196;2023-07-20T06:02:58;19.70;99.90
20735;DHT22;10528;52.124;5.196;2023-07-20T06:05:25;20.10;99.90
20735;DHT22;10528;52.124;5.196;2023-07-20T06:07:55;20.30;99.90
20735;DHT22;10528;52.124;5.196;2023-07-20T06:10:24;20.50;99.90
20735;DHT22;10528;52.124;5.196;2023-07-20T06:12:51;20.70;99.90
20735;DHT22;10528;52.124;5.196;2023-07-20T06:15:25;21.00;99.90
20735;DHT22;10528;52.124;5.196;2023-07-20T06:17:58;21.10;99.90
20735;DHT22;10528;52.124;5.196;2023-07-20T06:20:25;21.30;99.90
20735;DHT22;10528;52.124;5.196;2023-07-20T06:22:53;21.50;99.90
20735;DHT22;10528;52.124;5.196;2023-07-20T06:25:20;21.60;99.90
20735;DHT22;10528;52.124;5.196;2023-07-20T06:27:49;22.00;99.90
20735;DHT22;10528;52.124;5.196;2023-07-20T06:30:18;22.40;99.90
20735;DHT22;10528;52.124;5.196;2023-07-20T06:32:45;22.50;99.90
20735;DHT22;10528;52.124;5.196;2023-07-20T06:35:13;22.70;99.90
20735;DHT22;10528;52.124;5.196;2023-07-20T06:37:40;23.00;99.90
20735;DHT22;10528;52.124;5.196;2023-07-20T06:40:08;23.10;99.90
20735;DHT22;10528;52.124;5.196;2023-07-20T06:42:38;23.30;99.90
20735;DHT22;10528;52.124;5.196;2023-07-20T06:45:08;23.40;99.90
20735;DHT22;10528;52.124;5.196;2023-07-20T06:47:39;23.60;99.90
20735;DHT22;10528;52.124;5.196;2023-07-20T06:50:07;23.70;99.90
20735;DHT22;10528;52.124;5.196;2023-07-20T06:52:35;23.60;99.90
20735;DHT22;10528;52.124;5.196;2023-07-20T06:55:02;23.50;99.90
20735;DHT22;10528;52.124;5.196;2023-07-20T06:57:32;24.00;99.90
20735;DHT22;10528;52.124;5.196;2023-07-20T06:59:59;24.20;99.90
20735;DHT22;10528;52.124;5.196;2023-07-20T07:02:26;24.20;99.90
20735;DHT22;10528;52.124;5.196;2023-07-20T07:04:53;23.80;99.90
20735;DHT22;10528;52.124;5.196;2023-07-20T07:07:27;24.00;99.90
20735;DHT22;10528;52.124;5.196;2023-07-20T07:09:54;23.80;99.90
20735;DHT22;10528;52.124;5.196;2023-07-20T07:12:21;24.00;99.90
20735;DHT22;10528;52.124;5.196;2023-07-20T07:14:48;24.10;99.90
20735;DHT22;10528;52.124;5.196;2023-07-20T07:17:15;24.30;99.90
20735;DHT22;10528;52.124;5.196;2023-07-20T07:19:45;24.40;99.90
20735;DHT22;10528;52.124;5.196;2023-07-20T07:22:15;24.50;99.90
20735;DHT22;10528;52.124;5.196;2023-07-20T07:24:42;24.20;99.90
20735;DHT22;10528;52.124;5.196;2023-07-20T07:27:10;24.30;99.90
20735;DHT22;10528;52.124;5.196;2023-07-20T07:29:37;24.20;99.90
20735;DHT22;10528;52.124;5.196;2023-07-20T07:32:04;23.60;99.90
20735;DHT22;10528;52.124;5.196;2023-07-20T07:34:32;23.40;99.90
20735;DHT22;10528;52.124;5.196;2023-07-20T07:37:01;23.90;99.90
20735;DHT22;10528;52.124;5.196;2023-07-20T07:39:28;24.30;99.90
20735;DHT22;10528;52.124;5.196;2023-07-20T07:42:01;24.60;99.90
20735;DHT22;10528;52.124;5.196;2023-07-20T07:44:28;24.80;99.90
20735;DHT22;10528;52.124;5.196;2023-07-20T07:46:55;24.90;99.90
20735;DHT22;10528;52.124;5.196;2023-07-20T07:49:22;24.60;99.90
20735;DHT22;10528;52.124;5.196;2023-07-20T07:51:49;24.90;99.90
20735;DHT22;10528;52.124;5.196;2023-07-20T07:54:16;25.30;99.90
20735;DHT22;10528;52.124;5.196;2023-07-20T07:56:43;25.30;99.90
20735;DHT22;10528;52.124;5.196;2023-07-20T07:59:11;25.50;99.90
20735;DHT22;10528;52.124;5.196;2023-07-20T08:01:38;25.60;99.90
20735;DHT22;10528;52.124;5.196;2023-07-20T08:04:05;25.70;99.90
20735;DHT22;10528;52.124;5.196;2023-07-20T08:06:33;25.40;99.90
20735;DHT22;10528;52.124;5.196;2023-07-20T08:08:59;25.40;99.90
20735;DHT22;10528;52.124;5.196;2023-07-20T08:11:27;25.40;99.90
20735;DHT22;10528;52.124;5.196;2023-07-20T08:13:57;25.70;99.90
20735;DHT22;10528;52.124;5.196;2023-07-20T08:16:24;25.70;99.90
20735;DHT22;10528;52.124;5.196;2023-07-20T08:18:52;25.80;99.90
20735;DHT22;10528;52.124;5.196;2023-07-20T08:21:19;25.90;99.90
20735;DHT22;10528;52.124;5.196;2023-07-20T08:23:46;25.80;99.90
20735;DHT22;10528;52.124;5.196;2023-07-20T08:26:13;25.90;99.90
20735;DHT22;10528;52.124;5.196;2023-07-20T08:28:42;25.40;99.90
20735;DHT22;10528;52.124;5.196;2023-07-20T08:31:09;25.10;99.90
20735;DHT22;10528;52.124;5.196;2023-07-20T08:33:36;24.80;99.90
20735;DHT22;10528;52.124;5.196;2023-07-20T08:36:03;25.10;99.90
20735;DHT22;10528;52.124;5.196;2023-07-20T08:38:33;25.20;99.90
20735;DHT22;10528;52.124;5.196;2023-07-20T08:41:00;24.90;99.90
20735;DHT22;10528;52.124;5.196;2023-07-20T08:43:28;25.00;99.90
20735;DHT22;10528;52.124;5.196;2023-07-20T08:45:57;24.70;99.90
20735;DHT22;10528;52.124;5.196;2023-07-20T08:48:24;24.60;99.90
20735;DHT22;10528;52.124;5.196;2023-07-20T08:50:55;24.40;99.90
20735;DHT22;10528;52.124;5.196;2023-07-20T08:53:23;24.30;99.90
20735;DHT22;10528;52.124;5.196;2023-07-20T08:55:51;24.30;99.90
20735;DHT22;10528;52.124;5.196;2023-07-20T08:58:21;24.40;99.90
20735;DHT22;10528;52.124;5.196;2023-07-20T09:00:50;24.50;99.90
20735;DHT22;10528;52.124;5.196;2023-07-20T09:03:18;24.20;99.90
20735;DHT22;10528;52.124;5.196;2023-07-20T09:05:46;24.20;99.90
20735;DHT22;10528;52.124;5.196;2023-07-20T09:08:13;23.60;99.90
20735;DHT22;10528;52.124;5.196;2023-07-20T09:10:40;23.40;99.90
20735;DHT22;10528;52.124;5.196;2023-07-20T09:13:07;23.70;99.90
20735;DHT22;10528;52.124;5.196;2023-07-20T09:15:36;24.00;99.90
20735;DHT22;10528;52.124;5.196;2023-07-20T09:18:03;23.80;99.90
20735;DHT22;10528;52.124;5.196;2023-07-20T09:20:32;23.50;99.90
20735;DHT22;10528;52.124;5.196;2023-07-20T09:23:04;23.60;99.90
20735;DHT22;10528;52.124;5.196;2023-07-20T09:25:33;23.70;99.90
20735;DHT22;10528;52.124;5.196;2023-07-20T09:28:02;23.70;99.90
20735;DHT22;10528;52.124;5.196;2023-07-20T09:30:31;23.20;99.90
20735;DHT22;10528;52.124;5.196;2023-07-20T09:32:59;23.50;99.90
20735;DHT22;10528;52.124;5.196;2023-07-20T09:35:27;23.90;99.90
20735;DHT22;10528;52.124;5.196;2023-07-20T09:38:07;24.10;99.90
20735;DHT22;10528;52.124;5.196;2023-07-20T09:40:38;24.00;99.90
20735;DHT22;10528;52.124;5.196;2023-07-20T09:43:09;24.00;99.90
20735;DHT22;10528;52.124;5.196;2023-07-20T09:45:41;23.70;99.90
20735;DHT22;10528;52.124;5.196;2023-07-20T09:48:12;24.00;99.90
20735;DHT22;10528;52.124;5.196;2023-07-20T09:50:51;24.40;99.90
20735;DHT22;10528;52.124;5.196;2023-07-20T09:53:19;24.30;99.90
20735;DHT22;10528;52.124;5.196;2023-07-20T09:55:47;24.30;99.90
20735;DHT22;10528;52.124;5.196;2023-07-20T09:58:16;24.20;99.90
20735;DHT22;10528;52.124;5.196;2023-07-20T10:00:45;24.30;99.90
20735;DHT22;10528;52.124;5.196;2023-07-20T10:03:29;24.40;99.90
20735;DHT22;10528;52.124;5.196;2023-07-20T10:06:05;24.60;99.90
20735;DHT22;10528;52.124;5.196;2023-07-20T10:08:39;24.60;99.90
20735;DHT22;10528;52.124;5.196;2023-07-20T10:11:12;24.30;99.90
20735;DHT22;10528;52.124;5.196;2023-07-20T10:13:43;23.90;99.90
20735;DHT22;10528;52.124;5.196;2023-07-20T10:16:17;24.30;99.90
20735;DHT22;10528;52.124;5.196;2023-07-20T10:19:07;24.50;99.90
20735;DHT22;10528;52.124;5.196;2023-07-20T10:21:59;24.50;99.90
20735;DHT22;10528;52.124;5.196;2023-07-20T10:24:31;24.50;99.90
20735;DHT22;10528;52.124;5.196;2023-07-20T10:27:00;24.30;99.90
20735;DHT22;10528;52.124;5.196;2023-07-20T10:29:28;23.90;99.90
20735;DHT22;10528;52.124;5.196;2023-07-20T10:31:57;24.10;99.90
20735;DHT22;10528;52.124;5.196;2023-07-20T10:34:24;24.40;99.90
20735;DHT22;10528;52.124;5.196;2023-07-20T10:36:52;24.50;99.90
20735;DHT22;10528;52.124;5.196;2023-07-20T10:39:32;24.30;99.90
20735;DHT22;10528;52.124;5.196;2023-07-20T10:42:10;24.20;99.90
20735;DHT22;10528;52.124;5.196;2023-07-20T10:44:38;24.60;99.90
20735;DHT22;10528;52.124;5.196;2023-07-20T10:47:10;24.20;99.90
20735;DHT22;10528;52.124;5.196;2023-07-20T10:50:00;24.30;99.90
20735;DHT22;10528;52.124;5.196;2023-07-20T10:52:37;24.80;99.90
20735;DHT22;10528;52.124;5.196;2023-07-20T10:55:16;24.50;99.90
20735;DHT22;10528;52.124;5.196;2023-07-20T10:57:43;24.40;99.90
20735;DHT22;10528;52.124;5.196;2023-07-20T11:00:34;24.50;99.90
20735;DHT22;10528;52.124;5.196;2023-07-20T11:03:02;24.20;99.90
20735;DHT22;10528;52.124;5.196;2023-07-20T11:05:39;24.10;99.90
20735;DHT22;10528;52.124;5.196;2023-07-20T11:08:11;24.20;99.90
20735;DHT22;10528;52.124;5.196;2023-07-20T11:10:39;24.10;99.90
20735;DHT22;10528;52.124;5.196;2023-07-20T11:13:20;23.90;99.90
20735;DHT22;10528;52.124;5.196;2023-07-20T11:18:26;24.30;99.90
20735;DHT22;10528;52.124;5.196;2023-07-20T11:20:53;24.30;99.90
20735;DHT22;10528;52.124;5.196;2023-07-20T11:23:21;24.30;99.90
20735;DHT22;10528;52.124;5.196;2023-07-20T11:25:49;24.40;99.90
20735;DHT22;10528;52.124;5.196;2023-07-20T11:28:17;24.60;99.90
20735;DHT22;10528;52.124;5.196;2023-07-20T11:30:43;24.90;99.90
20735;DHT22;10528;52.124;5.196;2023-07-20T11:33:11;24.90;99.90
20735;DHT22;10528;52.124;5.196;2023-07-20T11:35:45;25.20;99.90
20735;DHT22;10528;52.124;5.196;2023-07-20T11:38:13;24.90;99.90
20735;DHT22;10528;52.124;5.196;2023-07-20T11:40:47;24.70;99.90
20735;DHT22;10528;52.124;5.196;2023-07-20T11:43:14;24.40;99.90
20735;DHT22;10528;52.124;5.196;2023-07-20T11:45:45;24.70;99.90
20735;DHT22;10528;52.124;5.196;2023-07-20T11:48:16;25.00;99.90
20735;DHT22;10528;52.124;5.196;2023-07-20T11:50:44;24.90;99.90
20735;DHT22;10528;52.124;5.196;2023-07-20T11:53:11;25.00;99.90
20735;DHT22;10528;52.124;5.196;2023-07-20T11:55:40;25.30;99.90
20735;DHT22;10528;52.124;5.196;2023-07-20T11:58:09;25.20;99.90
20735;DHT22;10528;52.124;5.196;2023-07-20T12:00:38;25.30;99.90
20735;DHT22;10528;52.124;5.196;2023-07-20T12:03:07;25.50;99.90
20735;DHT22;10528;52.124;5.196;2023-07-20T12:05:34;25.40;99.90
20735;DHT22;10528;52.124;5.196;2023-07-20T12:08:21;25.60;99.90
20735;DHT22;10528;52.124;5.196;2023-07-20T12:10:49;25.30;99.90
20735;DHT22;10528;52.124;5.196;2023-07-20T12:13:17;25.10;99.90
20735;DHT22;10528;52.124;5.196;2023-07-20T12:15:44;25.10;99.90
20735;DHT22;10528;52.124;5.196;2023-07-20T12:18:11;25.10;99.90
20735;DHT22;10528;52.124;5.196;2023-07-20T12:20:39;25.10;99.90
20735;DHT22;10528;52.124;5.196;2023-07-20T12:23:11;25.40;99.90
20735;DHT22;10528;52.124;5.196;2023-07-20T12:25:40;25.10;99.90
20735;DHT22;10528;52.124;5.196;2023-07-20T12:28:14;24.90;99.90
20735;DHT22;10528;52.124;5.196;2023-07-20T12:30:43;24.70;99.90
20735;DHT22;10528;52.124;5.196;2023-07-20T12:33:12;24.70;99.90
20735;DHT22;10528;52.124;5.196;2023-07-20T12:35:42;24.30;99.90
20735;DHT22;10528;52.124;5.196;2023-07-20T12:38:10;24.20;99.90
20735;DHT22;10528;52.124;5.196;2023-07-20T12:40:37;24.10;99.90
20735;DHT22;10528;52.124;5.196;2023-07-20T12:43:04;24.40;99.90
20735;DHT22;10528;52.124;5.196;2023-07-20T12:45:31;24.50;99.90
20735;DHT22;10528;52.124;5.196;2023-07-20T12:47:59;24.40;99.90
20735;DHT22;10528;52.124;5.196;2023-07-20T12:50:27;24.30;99.90
20735;DHT22;10528;52.124;5.196;2023-07-20T12:52:54;24.10;99.90
20735;DHT22;10528;52.124;5.196;2023-07-20T12:55:21;24.20;99.90
20735;DHT22;10528;52.124;5.196;2023-07-20T12:57:48;24.20;99.90
20735;DHT22;10528;52.124;5.196;2023-07-20T13:00:15;24.40;99.90
20735;DHT22;10528;52.124;5.196;2023-07-20T13:02:43;24.70;99.90
20735;DHT22;10528;52.124;5.196;2023-07-20T13:05:10;24.70;99.90
20735;DHT22;10528;52.124;5.196;2023-07-20T13:07:38;24.70;99.90
20735;DHT22;10528;52.124;5.196;2023-07-20T13:10:10;24.70;99.90
20735;DHT22;10528;52.124;5.196;2023-07-20T13:12:38;24.60;99.90
20735;DHT22;10528;52.124;5.196;2023-07-20T13:15:07;25.10;99.90
20735;DHT22;10528;52.124;5.196;2023-07-20T13:17:36;25.10;99.90
20735;DHT22;10528;52.124;5.196;2023-07-20T13:20:04;24.80;99.90
20735;DHT22;10528;52.124;5.196;2023-07-20T13:22:33;24.70;99.90
20735;DHT22;10528;52.124;5.196;2023-07-20T13:25:01;24.80;99.90
20735;DHT22;10528;52.124;5.196;2023-07-20T13:27:29;24.70;99.90
20735;DHT22;10528;52.124;5.196;2023-07-20T13:29:59;24.60;99.90
20735;DHT22;10528;52.124;5.196;2023-07-20T13:32:29;24.60;99.90
20735;DHT22;10528;52.124;5.196;2023-07-20T13:35:00;24.20;99.90
20735;DHT22;10528;52.124;5.196;2023-07-20T13:37:28;24.30;99.90
20735;DHT22;10528;52.124;5.196;2023-07-20T13:39:55;24.50;99.90
20735;DHT22;10528;52.124;5.196;2023-07-20T13:42:23;24.30;99.90
20735;DHT22;10528;52.124;5.196;2023-07-20T13:44:50;24.30;99.90
20735;DHT22;10528;52.124;5.196;2023-07-20T13:47:17;24.30;99.90
20735;DHT22;10528;52.124;5.196;2023-07-20T13:49:47;24.20;99.90
20735;DHT22;10528;52.124;5.196;2023-07-20T13:52:15;24.20;99.90
20735;DHT22;10528;52.124;5.196;2023-07-20T13:54:45;24.20;99.90
20735;DHT22;10528;52.124;5.196;2023-07-20T13:57:17;24.30;99.90
20735;DHT22;10528;52.124;5.196;2023-07-20T13:59:44;24.40;99.90
20735;DHT22;10528;52.124;5.196;2023-07-20T14:02:14;24.20;99.90
20735;DHT22;10528;52.124;5.196;2023-07-20T14:04:45;24.00;99.90
20735;DHT22;10528;52.124;5.196;2023-07-20T14:07:12;24.10;99.90
20735;DHT22;10528;52.124;5.196;2023-07-20T14:09:42;23.90;99.90
20735;DHT22;10528;52.124;5.196;2023-07-20T14:12:12;24.00;99.90
20735;DHT22;10528;52.124;5.196;2023-07-20T14:14:43;23.90;99.90
20735;DHT22;10528;52.124;5.196;2023-07-20T14:17:10;23.80;99.90
20735;DHT22;10528;52.124;5.196;2023-07-20T14:19:37;24.10;99.90
20735;DHT22;10528;52.124;5.196;2023-07-20T14:22:05;24.00;99.90
20735;DHT22;10528;52.124;5.196;2023-07-20T14:24:32;24.10;99.90
20735;DHT22;10528;52.124;5.196;2023-07-20T14:26:59;24.10;99.90
20735;DHT22;10528;52.124;5.196;2023-07-20T14:29:27;23.70;99.90
20735;DHT22;10528;52.124;5.196;2023-07-20T14:31:58;23.70;99.90
20735;DHT22;10528;52.124;5.196;2023-07-20T14:34:25;23.80;99.90
20735;DHT22;10528;52.124;5.196;2023-07-20T14:36:53;23.90;99.90
20735;DHT22;10528;52.124;5.196;2023-07-20T14:39:20;23.70;99.90
20735;DHT22;10528;52.124;5.196;2023-07-20T14:41:48;23.50;99.90
20735;DHT22;10528;52.124;5.196;2023-07-20T14:44:16;24.00;99.90
20735;DHT22;10528;52.124;5.196;2023-07-20T14:46:43;24.10;99.90
20735;DHT22;10528;52.124;5.196;2023-07-20T14:49:28;24.30;99.90
20735;DHT22;10528;52.124;5.196;2023-07-20T14:51:55;23.90;99.90
20735;DHT22;10528;52.124;5.196;2023-07-20T14:54:25;23.40;99.90
20735;DHT22;10528;52.124;5.196;2023-07-20T14:56:52;23.70;99.90
20735;DHT22;10528;52.124;5.196;2023-07-20T14:59:20;23.80;99.90
20735;DHT22;10528;52.124;5.196;2023-07-20T15:01:47;23.60;99.90
20735;DHT22;10528;52.124;5.196;2023-07-20T15:04:14;23.80;99.90
20735;DHT22;10528;52.124;5.196;2023-07-20T15:06:42;23.90;99.90
20735;DHT22;10528;52.124;5.196;2023-07-20T15:09:09;23.80;99.90
20735;DHT22;10528;52.124;5.196;2023-07-20T15:11:36;24.00;99.90
20735;DHT22;10528;52.124;5.196;2023-07-20T15:14:03;24.10;99.90
20735;DHT22;10528;52.124;5.196;2023-07-20T15:16:30;24.00;99.90
20735;DHT22;10528;52.124;5.196;2023-07-20T15:18:57;23.70;99.90
20735;DHT22;10528;52.124;5.196;2023-07-20T15:21:24;23.90;99.90
20735;DHT22;10528;52.124;5.196;2023-07-20T15:23:52;23.70;99.90
20735;DHT22;10528;52.124;5.196;2023-07-20T15:26:19;23.50;99.90
20735;DHT22;10528;52.124;5.196;2023-07-20T15:28:48;23.70;99.90
20735;DHT22;10528;52.124;5.196;2023-07-20T15:31:14;23.80;99.90
20735;DHT22;10528;52.124;5.196;2023-07-20T15:33:41;23.70;99.90
20735;DHT22;10528;52.124;5.196;2023-07-20T15:36:09;23.80;99.90
20735;DHT22;10528;52.124;5.196;2023-07-20T15:38:36;23.80;99.90
20735;DHT22;10528;52.124;5.196;2023-07-20T15:41:03;23.60;99.90
20735;DHT22;10528;52.124;5.196;2023-07-20T15:43:30;23.80;99.90
20735;DHT22;10528;52.124;5.196;2023-07-20T15:46:07;23.70;99.90
20735;DHT22;10528;52.124;5.196;2023-07-20T15:49:07;23.80;99.90
20735;DHT22;10528;52.124;5.196;2023-07-20T15:51:35;23.80;99.90
20735;DHT22;10528;52.124;5.196;2023-07-20T15:54:04;23.90;99.90
20735;DHT22;10528;52.124;5.196;2023-07-20T15:56:38;23.90;99.90